Time;durP1;ratioP1;P1;durP2;ratioP2;P2;SDS_P1;SDS_P2;PMS_P1;PMS_P2;Temp;Humidity;BMP_temperature;BMP_pressure;BME280_temperature;BME280_humidity;BME280_pressure;Samples;Min_cycle;Max_cycle;Signal;HPM_P1;HPM_P2
2021/09/03 00:02:02;;;;;;;;;13.50;13.00;;;;;26.98;37.97;101944.34;5043214;28;45335;-72
2021/09/03 00:04:27;;;;;;;;;12.50;12.00;;;;;26.95;37.70;101936.69;5043349;28;45294;-72
2021/09/03 00:06:53;;;;;;;;;12.75;12.75;;;;;26.93;37.52;101934.19;5041377;28;45221;-71
2021/09/03 00:09:18;;;;;;;;;13.00;13.00;;;;;26.98;37.64;101935.50;5040950;28;45624;-72
2021/09/03 00:11:44;;;;;;;;;12.25;10.00;;;;;26.86;37.67;101922.63;5042093;28;45344;-71
2021/09/03 00:14:09;;;;;;;;;13.00;11.00;;;;;26.98;38.13;101938.16;5042537;28;45408;-71
2021/09/03 00:16:37;;;;;;;;;13.00;12.25;;;;;26.96;37.75;101938.34;5042043;28;45549;-71
2021/09/03 00:19:06;;;;;;;;;11.50;11.50;;;;;26.92;37.79;101932.56;5042440;28;45435;-72
2021/09/03 00:21:31;;;;;;;;;12.25;10.75;;;;;26.93;37.64;101938.75;5038450;28;45333;-71
2021/09/03 00:23:57;;;;;;;;;12.50;12.25;;;;;26.96;38.29;101931.16;5042037;28;45540;-71
2021/09/03 00:26:22;;;;;;;;;10.25;9.25;;;;;26.93;37.93;101928.06;5042944;28;45451;-71
2021/09/03 00:28:47;;;;;;;;;12.25;12.00;;;;;26.89;38.25;101924.91;5042338;28;46474;-71
2021/09/03 00:31:13;;;;;;;;;15.00;14.25;;;;;26.93;37.88;101928.06;5041274;28;45968;-71
2021/09/03 00:33:38;;;;;;;;;10.50;9.75;;;;;26.92;38.09;101929.91;5039099;28;49110;-71
2021/09/03 00:36:04;;;;;;;;;13.50;13.00;;;;;26.96;37.99;101935.66;5041144;28;45483;-72
2021/09/03 00:38:29;;;;;;;;;11.00;11.00;;;;;26.91;37.81;101922.88;5042628;28;45412;-71
2021/09/03 00:40:54;;;;;;;;;11.00;11.00;;;;;26.79;37.69;101900.38;5042499;28;45381;-71
2021/09/03 00:43:20;;;;;;;;;13.50;12.25;;;;;26.91;38.26;101922.88;5042417;28;45291;-71
2021/09/03 00:45:45;;;;;;;;;11.00;11.00;;;;;26.74;38.24;101885.75;5039903;28;45268;-72
2021/09/03 00:48:10;;;;;;;;;10.75;10.75;;;;;26.91;37.93;101911.38;5040231;28;46465;-71
2021/09/03 00:50:36;;;;;;;;;10.00;10.00;;;;;26.92;37.91;101911.19;5039287;28;45295;-72
2021/09/03 00:53:04;;;;;;;;;12.25;12.25;;;;;26.94;37.95;101916.34;5039783;28;46506;-71
2021/09/03 00:55:29;;;;;;;;;12.50;11.00;;;;;26.85;38.06;101897.75;5039578;28;45440;-71
2021/09/03 00:57:55;;;;;;;;;11.75;11.75;;;;;26.87;38.02;101896.75;5039101;28;46485;-71
2021/09/03 01:00:20;;;;;;;;;11.75;11.25;;;;;26.92;38.14;101902.34;5036394;28;45761;-72
2021/09/03 01:02:46;;;;;;;;;10.50;10.00;;;;;26.91;37.53;101900.69;5039058;28;45432;-71
2021/09/03 01:05:11;;;;;;;;;12.00;9.50;;;;;26.96;37.77;101911.63;5039571;28;45557;-71
2021/09/03 01:07:37;;;;;;;;;11.25;11.25;;;;;26.90;38.00;101897.22;5039150;28;46539;-72
2021/09/03 01:10:03;;;;;;;;;10.50;10.50;;;;;26.93;38.08;101904.81;5039413;28;45421;-71
2021/09/03 01:12:28;;;;;;;;;11.25;10.75;;;;;26.96;37.58;101907.13;5038369;28;45483;-71
2021/09/03 01:14:54;;;;;;;;;13.50;13.00;;;;;26.91;37.68;101900.69;5037547;28;45286;-72
2021/09/03 01:17:19;;;;;;;;;13.00;12.00;;;;;26.79;37.87;101874.50;5038946;28;47210;-72
2021/09/03 01:19:49;;;;;;;;;14.50;11.75;;;;;26.91;38.15;101892.69;5039213;28;45364;-71
2021/09/03 01:22:19;;;;;;;;;13.50;13.50;;;;;26.77;37.89;101870.34;5039226;28;45485;-71
2021/09/03 01:24:44;;;;;;;;;12.00;12.00;;;;;26.82;37.98;101870.63;5039129;28;45408;-71
2021/09/03 01:27:10;;;;;;;;;11.75;10.75;;;;;26.90;37.66;101889.22;5035843;28;46178;-71
2021/09/03 01:29:35;;;;;;;;;12.50;11.25;;;;;26.85;38.05;101875.59;5041408;28;45412;-71
2021/09/03 01:32:00;;;;;;;;;12.00;10.25;;;;;26.94;37.97;101903.81;5041805;28;45408;-71
2021/09/03 01:34:25;;;;;;;;;12.50;12.50;;;;;26.90;37.71;101888.38;5041699;28;45260;-71
2021/09/03 01:36:51;;;;;;;;;12.75;12.75;;;;;26.88;37.88;101885.88;5039530;28;45478;-71
2021/09/03 01:39:16;;;;;;;;;15.25;15.25;;;;;26.92;38.03;101886.34;5039239;28;45290;-72
2021/09/03 01:41:42;;;;;;;;;12.00;11.25;;;;;26.88;37.81;101887.75;5040709;28;45373;-71
2021/09/03 01:44:09;;;;;;;;;14.75;12.00;;;;;26.88;38.22;101883.19;5041727;28;45487;-71
2021/09/03 01:46:34;;;;;;;;;13.75;13.00;;;;;26.83;38.17;101873.09;5041435;28;45366;-71
2021/09/03 01:48:59;;;;;;;;;12.00;11.75;;;;;26.87;38.17;101878.91;5040418;28;45385;-72
2021/09/03 01:51:25;;;;;;;;;13.75;11.75;;;;;26.76;38.10;101860.69;5038259;28;45364;-71
2021/09/03 01:53:50;;;;;;;;;10.75;7.75;;;;;26.88;38.16;101880.53;5040705;28;45366;-71
2021/09/03 01:56:16;;;;;;;;;12.25;12.25;;;;;26.93;37.91;101888.00;5041108;28;45497;-72
2021/09/03 01:58:41;;;;;;;;;12.75;12.75;;;;;26.93;38.17;101885.34;5041164;28;45369;-72
2021/09/03 02:01:06;;;;;;;;;10.75;9.00;;;;;26.80;37.81;101867.31;5041708;28;45498;-71
2021/09/03 02:03:32;;;;;;;;;14.00;13.00;;;;;26.87;37.88;101878.06;5038381;28;45462;-71
2021/09/03 02:05:58;;;;;;;;;15.75;14.00;;;;;26.89;37.93;101874.19;5036060;28;46267;-71
2021/09/03 02:08:23;;;;;;;;;12.75;12.25;;;;;26.88;37.88;101869.06;5041120;28;45485;-72
2021/09/03 02:10:49;;;;;;;;;13.50;12.00;;;;;26.90;38.31;101872.34;5040852;28;45364;-71
2021/09/03 02:13:14;;;;;;;;;12.50;11.75;;;;;26.87;38.12;101867.38;5041269;28;45471;-72
2021/09/03 02:15:39;;;;;;;;;12.00;11.50;;;;;26.85;37.92;101863.03;5037466;28;45605;-71
2021/09/03 02:18:05;;;;;;;;;10.00;10.00;;;;;26.91;37.96;101880.16;5039206;28;45374;-71
2021/09/03 02:20:30;;;;;;;;;13.00;11.50;;;;;26.84;37.95;101857.91;5041323;28;45439;-71
2021/09/03 02:22:55;;;;;;;;;11.00;11.00;;;;;26.89;38.29;101870.69;5041074;28;45434;-72
2021/09/03 02:25:21;;;;;;;;;14.50;13.25;;;;;26.92;38.11;101881.00;5040611;28;46234;-71
2021/09/03 02:27:46;;;;;;;;;11.00;11.00;;;;;26.73;38.17;101846.72;5038112;28;45480;-71
2021/09/03 02:30:12;;;;;;;;;16.00;14.50;;;;;26.90;38.24;101872.34;5038562;28;45721;-72
2021/09/03 02:32:37;;;;;;;;;12.75;12.00;;;;;26.89;37.69;101876.03;5040795;28;45467;-71
2021/09/03 02:35:03;;;;;;;;;13.25;12.00;;;;;26.88;37.75;101872.53;5040780;28;45670;-72
2021/09/03 02:37:29;;;;;;;;;15.50;14.00;;;;;26.86;38.33;101871.88;5040158;28;45412;-71
2021/09/03 02:39:54;;;;;;;;;13.75;12.00;;;;;26.92;38.07;101873.81;5038490;28;45311;-72
2021/09/03 02:42:19;;;;;;;;;11.25;11.25;;;;;26.87;37.77;101862.88;5038169;28;45412;-72
2021/09/03 02:44:45;;;;;;;;;12.25;12.25;;;;;26.87;38.03;101862.88;5039776;28;46464;-72
2021/09/03 02:47:10;;;;;;;;;11.25;10.25;;;;;26.83;37.56;101850.91;5040972;28;45539;-72
2021/09/03 02:49:35;;;;;;;;;11.75;11.25;;;;;26.91;37.82;101857.97;5040752;28;45338;-71
2021/09/03 02:52:01;;;;;;;;;13.50;12.00;;;;;26.93;38.07;101858.63;5040094;28;45412;-71
2021/09/03 02:54:26;;;;;;;;;14.25;10.75;;;;;26.76;38.07;101832.16;5036645;28;46573;-72
2021/09/03 02:56:52;;;;;;;;;12.50;10.75;;;;;26.84;37.84;101837.38;5039635;28;45297;-71
2021/09/03 02:59:17;;;;;;;;;13.00;12.25;;;;;26.87;37.84;101848.69;5040613;28;45386;-71
2021/09/03 03:01:43;;;;;;;;;12.75;12.75;;;;;26.90;38.19;101851.81;5040571;28;45405;-72
2021/09/03 03:04:08;;;;;;;;;15.00;14.00;;;;;26.76;38.39;101834.00;5038946;28;47421;-71
2021/09/03 03:06:33;;;;;;;;;10.00;10.00;;;;;26.89;38.01;101844.81;5036320;28;45341;-72
2021/09/03 03:08:59;;;;;;;;;10.50;10.00;;;;;26.84;38.34;101833.88;5039285;28;45409;-71
2021/09/03 03:11:24;;;;;;;;;14.75;13.00;;;;;26.90;38.05;101841.16;5040288;28;45661;-72
2021/09/03 03:13:58;;;;;;;;;11.50;11.50;;;;;26.85;38.20;101839.03;5040309;28;46091;-71
2021/09/03 03:16:24;;;;;;;;;12.00;12.00;;;;;26.85;38.13;101833.69;5040287;28;45261;-72
2021/09/03 03:18:49;;;;;;;;;8.50;8.50;;;;;26.86;38.21;101831.84;5037968;28;45331;-71
2021/09/03 03:21:14;;;;;;;;;11.50;10.25;;;;;26.90;37.96;101834.97;5036231;28;46716;-71
2021/09/03 03:23:40;;;;;;;;;13.50;13.50;;;;;26.87;38.32;101827.34;5038285;28;46579;-71
2021/09/03 03:26:05;;;;;;;;;14.00;13.00;;;;;26.85;37.82;101828.34;5035875;28;45401;-72
2021/09/03 03:28:30;;;;;;;;;13.25;13.25;;;;;26.89;38.05;101825.28;5037353;28;45534;-71
2021/09/03 03:30:56;;;;;;;;;12.50;10.75;;;;;26.89;38.33;101815.44;5037392;28;45373;-72
2021/09/03 03:33:21;;;;;;;;;15.50;14.75;;;;;26.87;38.24;101808.66;5035368;28;45317;-72
2021/09/03 03:35:46;;;;;;;;;9.25;9.25;;;;;26.85;38.06;101811.50;5036242;28;45489;-71
2021/09/03 03:38:11;;;;;;;;;14.25;13.00;;;;;26.84;38.33;101813.34;5037278;28;45367;-72
2021/09/03 03:40:37;;;;;;;;;12.25;10.75;;;;;26.74;38.59;101786.97;5037450;28;45548;-72
2021/09/03 03:43:02;;;;;;;;;13.00;12.50;;;;;26.87;37.89;101809.47;5035853;28;46425;-71
2021/09/03 03:45:27;;;;;;;;;12.25;12.25;;;;;26.80;38.00;101797.91;5036320;28;45368;-72
2021/09/03 03:47:53;;;;;;;;;11.75;11.75;;;;;26.88;38.23;101810.31;5035780;28;45447;-72
2021/09/03 03:50:18;;;;;;;;;14.75;13.00;;;;;26.86;37.99;101802.47;5039227;28;45491;-72
2021/09/03 03:52:43;;;;;;;;;11.00;11.00;;;;;26.77;38.55;101790.28;5040459;28;45494;-72
2021/09/03 03:55:09;;;;;;;;;13.25;13.25;;;;;26.87;38.24;101801.47;5040589;28;47526;-72
2021/09/03 03:57:35;;;;;;;;;13.00;11.00;;;;;26.86;38.46;101799.81;5040803;28;45345;-72
2021/09/03 04:00:01;;;;;;;;;10.75;10.50;;;;;26.71;38.29;101771.34;5053844;28;45348;-72
2021/09/03 04:02:26;;;;;;;;;10.25;10.25;;;;;26.90;38.31;101797.59;5043496;28;46513;-72
2021/09/03 04:04:51;;;;;;;;;12.25;11.00;;;;;26.82;38.36;101783.34;5043030;28;45367;-72
2021/09/03 04:07:17;;;;;;;;;11.00;10.50;;;;;26.89;38.29;101793.25;5043164;28;45314;-72
2021/09/03 04:09:42;;;;;;;;;13.00;13.00;;;;;26.81;38.23;101778.19;5039930;28;45732;-72
2021/09/03 04:12:09;;;;;;;;;17.25;13.50;;;;;26.84;38.14;101780.47;5041080;28;46596;-72
2021/09/03 04:14:35;;;;;;;;;12.00;12.00;;;;;26.86;37.74;101783.78;5043150;28;45854;-72
2021/09/03 04:17:00;;;;;;;;;15.50;13.50;;;;;26.87;38.33;101781.94;5042850;28;45318;-72
2021/09/03 04:19:25;;;;;;;;;12.00;11.50;;;;;26.87;38.10;101776.59;5042467;28;45364;-72
2021/09/03 04:21:51;;;;;;;;;14.50;12.25;;;;;26.84;37.81;101777.81;5040755;28;45320;-72
2021/09/03 04:24:16;;;;;;;;;10.00;10.00;;;;;26.84;38.11;101775.97;5040460;28;45432;-71
2021/09/03 04:26:43;;;;;;;;;13.00;12.50;;;;;26.83;37.90;101773.47;5042389;28;45289;-72
2021/09/03 04:29:08;;;;;;;;;12.25;12.00;;;;;26.81;38.13;101772.84;5042801;28;45548;-71
2021/09/03 04:31:33;;;;;;;;;12.00;12.00;;;;;26.87;38.35;101779.28;5042130;28;46018;-72
2021/09/03 04:33:59;;;;;;;;;13.00;10.75;;;;;26.76;38.03;101761.91;5041425;28;45585;-71
2021/09/03 04:36:24;;;;;;;;;13.75;12.00;;;;;26.83;38.48;101776.97;5039622;28;45540;-72
2021/09/03 04:38:49;;;;;;;;;11.50;9.75;;;;;26.88;37.88;101789.75;5041877;28;45439;-71
2021/09/03 04:41:15;;;;;;;;;12.00;10.75;;;;;26.84;38.35;101796.50;5042425;28;46481;-71
2021/09/03 04:43:40;;;;;;;;;11.50;10.75;;;;;26.85;37.82;101800.84;5042656;28;45366;-71
2021/09/03 04:46:05;;;;;;;;;14.00;12.50;;;;;26.82;38.35;101793.19;5042405;28;45326;-72
2021/09/03 04:48:31;;;;;;;;;9.00;9.00;;;;;26.84;38.41;101808.00;5038138;28;45532;-71
2021/09/03 04:50:56;;;;;;;;;13.25;11.75;;;;;26.80;37.90;101797.91;5041514;28;46863;-72
2021/09/03 04:53:21;;;;;;;;;11.00;11.00;;;;;26.68;37.86;101786.88;5042218;28;45270;-72
2021/09/03 04:55:47;;;;;;;;;12.25;12.25;;;;;26.83;38.04;101811.69;5042382;28;45388;-71
2021/09/03 04:58:12;;;;;;;;;10.50;10.50;;;;;26.82;37.94;101810.06;5042256;28;45352;-72
2021/09/03 05:00:37;;;;;;;;;10.50;10.50;;;;;26.73;37.90;101789.81;5037838;28;45487;-72
2021/09/03 05:03:03;;;;;;;;;13.75;10.50;;;;;26.84;38.20;101807.19;5040608;28;45236;-72
2021/09/03 05:05:28;;;;;;;;;12.50;12.50;;;;;26.79;38.77;101797.06;5042374;28;45321;-72
2021/09/03 05:07:54;;;;;;;;;14.25;11.25;;;;;26.82;38.43;101804.72;5042164;28;45500;-71
2021/09/03 05:10:19;;;;;;;;;11.50;11.50;;;;;26.79;38.21;101797.06;5042043;28;45469;-71
2021/09/03 05:12:45;;;;;;;;;9.25;9.25;;;;;26.84;38.56;101804.50;5038968;28;45298;-72
2021/09/03 05:15:12;;;;;;;;;12.75;12.75;;;;;26.80;38.48;101793.41;5039877;28;45356;-71
2021/09/03 05:17:47;;;;;;;;;12.50;11.25;;;;;26.85;38.33;101804.31;5038351;28;45550;-72
2021/09/03 05:20:13;;;;;;;;;10.25;10.25;;;;;26.81;38.38;101795.03;5038742;28;46480;-72
2021/09/03 05:22:38;;;;;;;;;12.00;12.00;;;;;26.79;38.17;101781.06;5041647;28;45578;-72
2021/09/03 05:25:04;;;;;;;;;13.50;12.00;;;;;26.84;38.00;101791.16;5041609;28;45409;-71
2021/09/03 05:27:30;;;;;;;;;14.25;12.75;;;;;26.81;38.07;101784.34;5037828;28;45427;-72
2021/09/03 05:29:55;;;;;;;;;11.00;11.00;;;;;26.82;38.20;101786.03;5040559;28;45553;-71
2021/09/03 05:32:21;;;;;;;;;10.50;10.50;;;;;26.77;37.94;101776.94;5041392;28;45373;-71
2021/09/03 05:34:46;;;;;;;;;13.00;12.00;;;;;26.80;38.24;101787.22;5041897;28;45289;-71
2021/09/03 05:37:12;;;;;;;;;13.00;12.00;;;;;26.80;38.36;101784.56;5041553;28;45529;-71
2021/09/03 05:39:37;;;;;;;;;14.00;13.00;;;;;26.82;38.28;101782.53;5037572;28;46327;-71
2021/09/03 05:42:03;;;;;;;;;10.25;9.25;;;;;26.85;38.16;101787.50;5040327;28;49612;-71
2021/09/03 05:44:28;;;;;;;;;13.00;13.00;;;;;26.81;38.25;101783.53;5041755;28;45303;-71
2021/09/03 05:46:54;;;;;;;;;13.00;10.00;;;;;26.82;38.43;101787.88;5041105;28;45246;-71
2021/09/03 05:49:19;;;;;;;;;11.50;11.50;;;;;26.83;38.25;101793.00;5041425;28;45356;-71
2021/09/03 05:51:44;;;;;;;;;13.00;12.75;;;;;26.78;38.07;101794.63;5038382;28;45373;-72
2021/09/03 05:54:10;;;;;;;;;13.00;11.50;;;;;26.85;38.23;101801.63;5039415;28;45619;-72
2021/09/03 05:56:37;;;;;;;;;13.50;11.00;;;;;26.85;38.41;101798.16;5041408;28;45571;-71
2021/09/03 05:59:04;;;;;;;;;11.50;11.50;;;;;26.85;38.49;101800.84;5041229;28;46576;-72
2021/09/03 06:01:30;;;;;;;;;12.00;12.00;;;;;26.80;38.41;101788.06;5041066;28;45480;-72
2021/09/03 06:03:55;;;;;;;;;13.00;10.50;;;;;26.79;37.95;101788.25;5039958;28;45445;-72
2021/09/03 06:06:20;;;;;;;;;13.50;11.50;;;;;26.83;38.19;101794.84;5038604;28;45512;-71
2021/09/03 06:08:46;;;;;;;;;10.25;9.75;;;;;26.82;38.14;101791.38;5040301;28;46257;-74
2021/09/03 06:11:12;;;;;;;;;10.00;10.00;;;;;26.69;38.56;101778.72;5041132;28;45312;-73
2021/09/03 06:13:37;;;;;;;;;15.50;15.50;;;;;26.81;37.95;101781.69;5040223;28;45263;-72
2021/09/03 06:16:03;;;;;;;;;21.75;18.75;;;;;26.86;37.95;101794.47;5048126;28;45380;-71
2021/09/03 06:18:28;;;;;;;;;17.50;17.50;;;;;26.96;37.73;101802.97;5051431;28;46041;-71
2021/09/03 06:20:53;;;;;;;;;25.25;23.75;;;;;26.99;37.45;101803.63;5054605;28;45328;-71
2021/09/03 06:23:19;;;;;;;;;23.00;20.75;;;;;26.90;37.26;101786.91;5052448;28;45932;-71
2021/09/03 06:25:44;;;;;;;;;23.50;21.25;;;;;26.99;37.54;101795.59;5052168;28;45491;-72
2021/09/03 06:28:09;;;;;;;;;26.00;23.00;;;;;26.94;37.34;101785.50;5054457;28;46197;-71
2021/09/03 06:30:35;;;;;;;;;20.25;19.75;;;;;27.10;37.09;101804.94;5060521;28;45451;-72
2021/09/03 06:33:00;;;;;;;;;24.75;21.50;;;;;27.10;36.75;101800.44;5053388;28;45387;-70
2021/09/03 06:35:26;;;;;;;;;27.75;23.00;;;;;27.05;37.39;101802.84;5043736;28;47437;-70
2021/09/03 06:37:51;;;;;;;;;27.00;24.25;;;;;27.03;36.98;101807.56;5044367;28;46388;-70
2021/09/03 06:40:16;;;;;;;;;26.00;22.25;;;;;26.96;36.85;101802.97;5044967;28;45364;-70
2021/09/03 06:42:42;;;;;;;;;20.75;20.00;;;;;26.84;36.92;101797.34;5045600;28;45327;-70
2021/09/03 06:45:09;;;;;;;;;22.25;20.50;;;;;26.89;37.16;101810.09;5043318;28;45387;-71
2021/09/03 06:47:34;;;;;;;;;24.25;22.75;;;;;26.80;37.34;101800.56;5048478;28;45487;-73
2021/09/03 06:50:00;;;;;;;;;21.00;18.50;;;;;26.77;37.24;101799.13;5041339;28;45362;-73
2021/09/03 06:52:31;;;;;;;;;25.50;24.00;;;;;26.79;37.02;101809.59;5037613;28;45467;-73
2021/09/03 06:54:58;;;;;;;;;21.75;21.25;;;;;26.76;37.58;101805.47;5037795;28;45373;-73
2021/09/03 06:57:23;;;;;;;;;30.50;26.50;;;;;26.76;37.03;101809.97;5035629;28;46226;-72
2021/09/03 06:59:49;;;;;;;;;27.00;23.00;;;;;26.68;37.35;101800.22;5035011;28;45647;-72
2021/09/03 07:02:15;;;;;;;;;24.75;22.75;;;;;26.54;37.22;101794.78;5037693;28;47349;-72
2021/09/03 07:04:41;;;;;;;;;29.75;25.00;;;;;26.69;37.18;101824.09;5037422;28;45433;-73
2021/09/03 07:07:06;;;;;;;;;28.75;26.25;;;;;26.66;37.13;101816.44;5037400;28;45645;-73
2021/09/03 07:09:32;;;;;;;;;21.25;21.25;;;;;26.67;37.08;101814.63;5036983;28;45234;-72
2021/09/03 07:11:57;;;;;;;;;24.25;22.25;;;;;26.70;37.40;101811.56;5035462;28;45388;-73
2021/09/03 07:14:23;;;;;;;;;25.00;25.00;;;;;26.67;37.11;101810.09;5037217;28;45502;-73
2021/09/03 07:16:48;;;;;;;;;30.50;25.75;;;;;26.71;37.59;101813.22;5037030;28;45276;-72
2021/09/03 07:19:13;;;;;;;;;23.00;22.00;;;;;26.69;37.15;101807.25;5039916;28;45452;-71
2021/09/03 07:21:39;;;;;;;;;25.50;24.25;;;;;26.69;36.86;101813.41;5036528;28;45517;-73
2021/09/03 07:24:04;;;;;;;;;28.25;25.50;;;;;26.61;37.47;101792.16;5039482;28;45338;-73
2021/09/03 07:26:30;;;;;;;;;30.25;28.00;;;;;26.63;37.07;101801.63;5043714;28;46208;-72
2021/09/03 07:28:56;;;;;;;;;26.75;21.25;;;;;26.62;37.29;101797.31;5043157;28;45508;-73
2021/09/03 07:31:21;;;;;;;;;25.25;22.50;;;;;26.65;37.70;101809.44;5047646;28;45580;-72
2021/09/03 07:33:47;;;;;;;;;24.75;23.75;;;;;26.60;37.32;101801.19;5040830;28;45508;-72
2021/09/03 07:36:12;;;;;;;;;25.25;21.50;;;;;26.58;37.47;101790.69;5038488;28;46426;-73
2021/09/03 07:38:38;;;;;;;;;22.00;22.00;;;;;26.61;37.25;101805.50;5039970;28;45264;-72
2021/09/03 07:41:04;;;;;;;;;25.25;22.00;;;;;26.69;37.54;101817.91;5040686;28;45387;-72
2021/09/03 07:43:29;;;;;;;;;22.75;21.75;;;;;26.61;37.14;101803.69;5040164;28;45491;-73
2021/09/03 07:45:56;;;;;;;;;24.00;23.25;;;;;26.68;37.49;101801.06;5039156;28;46841;-72
2021/09/03 07:48:21;;;;;;;;;23.00;22.00;;;;;26.73;37.17;101808.50;5038485;28;45579;-73
2021/09/03 07:50:47;;;;;;;;;27.75;26.25;;;;;26.59;37.61;101776.34;5039953;28;45353;-73
2021/09/03 07:53:13;;;;;;;;;23.75;21.75;;;;;26.69;37.03;101793.88;5040285;28;45720;-73
2021/09/03 07:55:38;;;;;;;;;30.25;25.00;;;;;26.79;37.06;101790.91;5039347;28;46491;-73
2021/09/03 07:58:05;;;;;;;;;22.25;19.75;;;;;26.79;37.75;101796.25;5041909;28;45299;-73
2021/09/03 08:00:31;;;;;;;;;21.25;21.00;;;;;26.77;37.31;101784.94;5039100;28;45670;-72
2021/09/03 08:02:57;;;;;;;;;27.25;24.25;;;;;26.74;37.58;101775.47;5042013;28;45311;-73
2021/09/03 08:05:23;;;;;;;;;22.75;20.25;;;;;26.80;37.77;101785.41;5042550;28;45363;-73
2021/09/03 08:07:48;;;;;;;;;24.25;22.75;;;;;26.81;37.12;101784.34;5042785;28;45437;-73
2021/09/03 08:10:15;;;;;;;;;24.00;19.00;;;;;26.87;37.54;101795.28;5042909;28;45505;-72
2021/09/03 08:12:41;;;;;;;;;22.75;20.25;;;;;26.91;37.23;101799.22;5038779;28;45537;-72
2021/09/03 08:15:09;;;;;;;;;23.50;22.75;;;;;26.90;37.31;101781.56;5041204;28;45487;-72
2021/09/03 08:17:35;;;;;;;;;23.50;23.00;;;;;26.92;37.60;101785.69;5042443;28;45452;-73
2021/09/03 08:20:01;;;;;;;;;25.00;21.50;;;;;26.95;37.29;101788.00;5041389;28;45614;-72
2021/09/03 08:22:27;;;;;;;;;23.25;20.00;;;;;26.95;37.50;101777.31;5042716;28;45381;-72
2021/09/03 08:24:52;;;;;;;;;24.25;19.25;;;;;26.99;37.83;101774.25;5040169;28;46109;-73
2021/09/03 08:27:18;;;;;;;;;18.00;17.75;;;;;27.05;37.70;101785.00;5039624;28;45286;-73
2021/09/03 08:29:45;;;;;;;;;18.50;17.00;;;;;27.05;37.41;101777.00;5041629;28;45598;-73
2021/09/03 08:32:11;;;;;;;;;23.25;22.00;;;;;27.12;37.04;101785.03;5043060;28;45452;-73
2021/09/03 08:34:36;;;;;;;;;19.75;17.75;;;;;27.14;37.53;101780.34;5042065;28;46124;-73
2021/09/03 08:37:02;;;;;;;;;17.25;17.25;;;;;27.15;37.16;101781.19;5040716;28;45432;-73
2021/09/03 08:39:27;;;;;;;;;21.25;17.00;;;;;27.18;37.34;101772.81;5037638;28;45246;-73
2021/09/03 08:41:53;;;;;;;;;19.00;19.00;;;;;27.17;37.36;101771.13;5040138;28;45396;-73
2021/09/03 08:44:18;;;;;;;;;19.00;17.75;;;;;27.23;37.58;101780.22;5041875;28;46557;-73
2021/09/03 08:46:45;;;;;;;;;21.50;17.75;;;;;27.24;37.96;101776.56;5042258;28;45411;-73
2021/09/03 08:49:11;;;;;;;;;22.25;19.75;;;;;27.27;37.91;101784.97;5042176;28;45324;-73
2021/09/03 08:51:36;;;;;;;;;20.50;17.75;;;;;27.26;38.04;101782.53;5037866;28;45373;-74
2021/09/03 08:54:02;;;;;;;;;22.50;19.25;;;;;27.25;37.89;101781.69;5040938;28;45658;-74
2021/09/03 08:56:27;;;;;;;;;22.25;20.00;;;;;27.26;37.83;101783.34;5041568;28;45546;-75
2021/09/03 08:58:52;;;;;;;;;21.00;17.50;;;;;27.32;38.02;101781.75;5042030;28;45429;-75
2021/09/03 09:01:18;;;;;;;;;15.25;15.25;;;;;27.26;37.98;101772.66;5042154;28;45409;-73
2021/09/03 09:03:46;;;;;;;;;19.75;16.25;;;;;27.27;37.77;101760.94;5038920;28;45519;-73
2021/09/03 09:06:24;;;;;;;;;18.00;16.25;;;;;27.37;37.98;101774.00;5039225;28;45442;-73
2021/09/03 09:08:56;;;;;;;;;14.75;13.75;;;;;27.38;38.29;101778.28;5040907;28;45303;-73
2021/09/03 09:11:26;;;;;;;;;17.00;17.00;;;;;27.32;38.15;101763.06;5041448;28;45514;-73
2021/09/03 09:13:52;;;;;;;;;18.50;16.50;;;;;27.43;38.10;101777.69;5041576;28;46380;-73
2021/09/03 09:16:19;;;;;;;;;21.75;18.00;;;;;27.44;38.05;101775.88;5041903;28;45572;-73
2021/09/03 09:18:53;;;;;;;;;18.75;18.00;;;;;27.46;38.21;101774.66;5038590;28;45340;-74
2021/09/03 09:21:19;;;;;;;;;17.75;15.00;;;;;27.45;37.75;101770.34;5039213;28;45674;-73
2021/09/03 09:24:08;;;;;;;;;16.50;16.50;;;;;27.39;37.92;101750.56;5040340;28;46089;-73
2021/09/03 09:26:45;;;;;;;;;15.75;13.75;;;;;27.38;38.05;101745.41;5041605;28;45469;-73
2021/09/03 09:29:23;;;;;;;;;14.50;14.50;;;;;27.51;37.78;101756.19;5041487;28;45462;-74
2021/09/03 09:31:58;;;;;;;;;16.25;15.00;;;;;27.42;38.36;101741.34;5041730;28;45588;-73
2021/09/03 09:34:28;;;;;;;;;17.50;16.00;;;;;27.53;38.34;101753.31;5040039;28;46131;-73
2021/09/03 09:36:56;;;;;;;;;16.00;14.00;;;;;27.56;37.88;101744.91;5039390;28;45453;-73
2021/09/03 09:39:24;;;;;;;;;15.50;15.00;;;;;27.55;38.05;101737.91;5038137;28;45344;-73
2021/09/03 09:42:29;;;;;;;;;14.00;14.00;;;;;27.56;38.26;101744.91;5040424;28;45409;-73
2021/09/03 09:45:10;;;;;;;;;21.00;17.75;;;;;27.64;37.45;101746.59;5040199;28;45538;-74
2021/09/03 09:47:38;;;;;;;;;13.50;13.25;;;;;27.60;37.36;101745.34;5040835;28;45235;-73
2021/09/03 09:50:22;;;;;;;;;13.25;12.25;;;;;27.65;37.92;101744.75;5041324;28;45381;-73
2021/09/03 09:52:47;;;;;;;;;13.50;12.25;;;;;27.60;37.21;101738.16;5039613;28;45527;-74
2021/09/03 09:55:12;;;;;;;;;12.25;11.25;;;;;27.61;37.09;101744.34;5040120;28;46916;-74
2021/09/03 09:57:41;;;;;;;;;14.00;12.75;;;;;27.60;36.98;101735.47;5053740;28;45535;-74
2021/09/03 10:00:07;;;;;;;;;10.75;10.75;;;;;27.63;37.11;101744.94;5035926;28;45668;-74
2021/09/03 10:02:38;;;;;;;;;13.50;12.00;;;;;27.60;36.48;101730.13;5038356;28;45766;-73
2021/09/03 10:05:04;;;;;;;;;11.50;11.25;;;;;27.65;36.49;101745.56;5038234;28;46411;-73
2021/09/03 10:07:31;;;;;;;;;12.50;11.50;;;;;27.62;36.93;101745.97;5037478;28;45425;-73
2021/09/03 10:09:57;;;;;;;;;13.25;11.75;;;;;27.57;36.20;101719.00;5038526;28;45424;-74
2021/09/03 10:12:22;;;;;;;;;10.25;9.50;;;;;27.57;36.42;101719.00;5036540;28;45329;-73
2021/09/03 10:14:49;;;;;;;;;10.25;10.00;;;;;27.61;35.91;101725.63;5037528;28;46505;-73
2021/09/03 10:17:15;;;;;;;;;11.25;11.25;;;;;27.59;36.06;101720.44;5037964;28;45389;-73
2021/09/03 10:19:42;;;;;;;;;12.50;11.00;;;;;27.54;35.87;101717.53;5038236;28;45400;-73
2021/09/03 10:22:13;;;;;;;;;10.50;10.50;;;;;27.55;35.69;101710.34;5037949;28;45560;-73
2021/09/03 10:24:43;;;;;;;;;14.25;13.75;;;;;27.61;36.19;101728.28;5038048;28;45439;-73
2021/09/03 10:27:10;;;;;;;;;12.50;10.25;;;;;27.60;35.50;101716.78;5035584;28;45448;-73
2021/09/03 10:29:41;;;;;;;;;12.25;12.00;;;;;27.55;35.52;101713.03;5037524;28;45460;-73
2021/09/03 10:34:40;;;;;;;;;9.25;9.25;;;;;27.61;35.60;101714.94;5040568;28;46010;-73
2021/09/03 10:37:12;;;;;;;;;15.25;14.00;;;;;27.62;35.98;101721.91;5039992;28;45401;-73
2021/09/03 10:39:43;;;;;;;;;14.50;12.00;;;;;27.61;35.42;101710.38;5038344;28;45508;-74
2021/09/03 10:42:08;;;;;;;;;11.25;11.25;;;;;27.59;36.09;101712.44;5035498;28;45369;-74
2021/09/03 10:45:11;;;;;;;;;13.75;12.50;;;;;27.59;36.19;101711.59;5037588;28;45423;-73
2021/09/03 10:47:47;;;;;;;;;11.50;11.50;;;;;27.58;36.04;101713.47;5044897;28;45717;-73
2021/09/03 10:50:32;;;;;;;;;12.75;12.75;;;;;27.55;35.55;101713.88;5043669;28;45639;-73
2021/09/03 10:53:06;;;;;;;;;11.00;11.00;;;;;27.57;36.03;101705.63;5055153;28;45767;-74
2021/09/03 10:55:52;;;;;;;;;11.00;11.00;;;;;27.56;35.65;101707.47;5051556;28;46095;-74
2021/09/03 10:58:35;;;;;;;;;13.75;12.75;;;;;27.58;35.98;101709.97;5053622;28;45389;-74
2021/09/03 11:01:10;;;;;;;;;10.00;10.00;;;;;27.56;35.93;101698.66;5053312;28;45501;-74
2021/09/03 11:03:44;;;;;;;;;14.75;13.25;;;;;27.55;35.44;101689.81;5055156;28;45494;-74
2021/09/03 11:06:12;;;;;;;;;11.25;10.25;;;;;27.56;35.71;101690.63;5056455;28;46499;-74
2021/09/03 11:08:42;;;;;;;;;13.25;13.25;;;;;27.48;35.65;101686.28;5053432;28;45348;-74
2021/09/03 11:11:34;;;;;;;;;11.75;11.25;;;;;27.56;35.51;101682.63;5058334;28;45562;-74